createdAt,value
2022-12-03T00:02:16.390Z,9.63
2022-12-03T00:04:42.839Z,9.93
2022-12-03T00:07:09.320Z,9.50
2022-12-03T00:09:35.761Z,10.10
2022-12-03T00:12:02.145Z,10.20
2022-12-03T00:14:28.613Z,10.00
2022-12-03T00:16:55.006Z,10.88
2022-12-03T00:19:21.400Z,9.88
2022-12-03T00:21:47.776Z,10.73
2022-12-03T00:24:14.205Z,10.55
2022-12-03T00:26:40.710Z,10.20
2022-12-03T00:29:07.082Z,10.32
2022-12-03T00:31:33.608Z,9.88
2022-12-03T00:34:00.020Z,10.48
2022-12-03T00:36:26.454Z,11.25
2022-12-03T00:38:52.878Z,11.05
2022-12-03T00:41:19.361Z,10.55
2022-12-03T00:43:45.827Z,10.32
2022-12-03T00:46:13.935Z,10.05
2022-12-03T00:48:43.250Z,10.05
2022-12-03T00:51:09.685Z,10.38
2022-12-03T00:53:36.125Z,10.50
2022-12-03T00:56:02.601Z,10.73
2022-12-03T00:58:29.013Z,10.68
2022-12-03T01:00:55.414Z,10.30
2022-12-03T01:03:21.832Z,9.50
2022-12-03T01:05:48.273Z,10.48
2022-12-03T01:08:14.831Z,10.48
2022-12-03T01:10:41.276Z,10.55
2022-12-03T01:13:07.848Z,11.02
2022-12-03T01:15:34.385Z,11.18
2022-12-03T01:18:00.935Z,10.57
2022-12-03T01:20:27.480Z,11.13
2022-12-03T01:22:54.039Z,11.48
2022-12-03T01:25:20.549Z,11.00
2022-12-03T01:27:46.948Z,11.23
2022-12-03T01:30:13.764Z,10.27
2022-12-03T01:32:40.233Z,11.00
2022-12-03T01:35:07.252Z,11.45
2022-12-03T01:37:33.712Z,10.88
2022-12-03T01:40:00.117Z,10.82
2022-12-03T01:42:35.416Z,11.48
2022-12-03T01:45:03.065Z,11.95
2022-12-03T01:47:38.619Z,11.07
2022-12-03T01:50:17.932Z,11.02
2022-12-03T01:52:45.160Z,11.27
2022-12-03T01:55:15.593Z,11.02
2022-12-03T01:57:44.940Z,11.23
2022-12-03T02:00:20.629Z,11.45
2022-12-03T02:02:49.838Z,11.32
2022-12-03T02:05:19.754Z,10.65
2022-12-03T02:07:46.707Z,10.93
2022-12-03T02:10:15.522Z,10.82
2022-12-03T02:12:56.491Z,10.45
2022-12-03T02:15:23.079Z,11.70
2022-12-03T02:17:49.890Z,11.02
2022-12-03T02:20:16.403Z,11.45
2022-12-03T02:23:13.877Z,10.57
2022-12-03T02:25:40.311Z,10.40
2022-12-03T02:28:09.108Z,11.40
2022-12-03T02:30:36.399Z,11.13
2022-12-03T02:33:03.448Z,11.15
2022-12-03T02:35:34.745Z,11.68
2022-12-03T02:38:12.619Z,11.20
2022-12-03T02:40:39.605Z,11.25
2022-12-03T02:43:06.397Z,11.48
2022-12-03T02:45:41.567Z,11.75
2022-12-03T02:50:41.500Z,10.50
2022-12-03T02:53:13.070Z,11.82
2022-12-03T02:55:40.846Z,11.25
2022-12-03T02:58:07.321Z,11.43
2022-12-03T03:00:35.582Z,11.52
2022-12-03T03:03:04.136Z,11.68
2022-12-03T03:05:31.518Z,11.60
2022-12-03T03:07:59.821Z,11.25
2022-12-03T03:10:28.818Z,12.13
2022-12-03T03:12:56.339Z,11.55
2022-12-03T03:15:24.484Z,11.27
2022-12-03T03:17:51.600Z,12.40
2022-12-03T03:20:18.884Z,11.35
2022-12-03T03:22:45.275Z,11.35
2022-12-03T03:25:18.564Z,12.07
2022-12-03T03:28:00.237Z,11.75
2022-12-03T03:30:26.671Z,12.65
2022-12-03T03:32:53.192Z,12.55
2022-12-03T03:35:19.713Z,12.40
2022-12-03T03:37:46.274Z,12.48
2022-12-03T03:40:12.925Z,11.85
2022-12-03T03:42:39.548Z,11.82
2022-12-03T03:45:07.425Z,12.02
2022-12-03T03:47:33.999Z,11.80
2022-12-03T03:50:00.986Z,11.77
2022-12-03T03:52:27.902Z,12.35
2022-12-03T03:54:54.487Z,12.98
2022-12-03T03:57:21.117Z,12.13
2022-12-03T03:59:47.702Z,12.35
2022-12-03T04:02:24.868Z,12.40
2022-12-03T04:04:51.913Z,12.95
2022-12-03T04:07:18.695Z,11.85
2022-12-03T04:09:45.249Z,12.20
2022-12-03T04:12:45.021Z,12.40
2022-12-03T04:15:11.454Z,11.82
2022-12-03T04:17:37.824Z,12.57
2022-12-03T04:20:05.005Z,13.07
2022-12-03T04:22:40.083Z,12.45
2022-12-03T04:25:26.590Z,12.57
2022-12-03T04:28:11.969Z,11.70
2022-12-03T04:30:38.499Z,12.10
2022-12-03T04:33:23.712Z,12.82
2022-12-03T04:35:50.236Z,12.95
2022-12-03T04:38:16.990Z,14.27
2022-12-03T04:41:01.683Z,12.43
2022-12-03T04:43:29.065Z,12.65
2022-12-03T04:45:55.460Z,12.98
2022-12-03T04:48:22.066Z,12.38
2022-12-03T04:50:48.507Z,12.85
2022-12-03T04:53:14.880Z,11.18
2022-12-03T04:55:41.294Z,12.15
2022-12-03T04:58:07.672Z,12.60
2022-12-03T05:00:34.106Z,13.15
2022-12-03T05:03:00.597Z,13.00
2022-12-03T05:05:27.076Z,12.98
2022-12-03T05:07:53.483Z,12.13
2022-12-03T05:10:19.966Z,13.43
2022-12-03T05:12:46.359Z,13.05
2022-12-03T05:15:12.784Z,12.48
2022-12-03T05:17:39.145Z,12.27
2022-12-03T05:20:24.799Z,12.93
2022-12-03T05:22:51.200Z,11.82
2022-12-03T05:25:17.565Z,14.15
2022-12-03T05:27:43.963Z,12.43
2022-12-03T05:30:10.851Z,12.07
2022-12-03T05:32:38.449Z,13.20
2022-12-03T05:35:05.284Z,13.13
2022-12-03T05:37:31.692Z,13.65
2022-12-03T05:39:58.064Z,11.73
2022-12-03T05:42:43.096Z,13.30
2022-12-03T05:45:10.598Z,12.82
2022-12-03T05:47:37.048Z,12.35
2022-12-03T05:50:03.686Z,12.48
2022-12-03T05:52:30.058Z,12.70
2022-12-03T05:54:56.447Z,12.40
2022-12-03T05:57:22.988Z,12.18
2022-12-03T05:59:49.539Z,12.73
2022-12-03T06:02:16.020Z,13.07
2022-12-03T06:04:42.514Z,12.63
2022-12-03T06:07:13.790Z,12.75
2022-12-03T06:09:40.703Z,13.60
2022-12-03T06:12:08.766Z,12.30
2022-12-03T06:14:35.695Z,12.48
2022-12-03T06:17:02.995Z,11.52
2022-12-03T06:19:29.397Z,12.90
2022-12-03T06:21:55.845Z,13.18
2022-12-03T06:24:22.258Z,14.18
2022-12-03T06:26:48.682Z,13.27
2022-12-03T06:29:15.089Z,11.70
2022-12-03T06:31:41.548Z,13.50
2022-12-03T06:34:08.051Z,12.93
2022-12-03T06:36:34.489Z,13.25
2022-12-03T06:39:00.947Z,12.52
2022-12-03T06:41:27.535Z,12.95
2022-12-03T06:43:53.888Z,12.32
2022-12-03T06:46:20.335Z,13.40
2022-12-03T06:48:46.784Z,12.90
2022-12-03T06:51:13.208Z,12.45
2022-12-03T06:53:39.653Z,13.25
2022-12-03T06:56:06.460Z,12.00
2022-12-03T06:58:32.847Z,12.38
2022-12-03T07:00:59.267Z,13.15
2022-12-03T07:03:25.641Z,13.95
2022-12-03T07:05:52.253Z,13.18
2022-12-03T07:08:18.897Z,13.68
2022-12-03T07:10:45.389Z,13.23
2022-12-03T07:13:11.806Z,14.30
2022-12-03T07:15:38.226Z,12.55
2022-12-03T07:18:04.916Z,13.73
2022-12-03T07:20:31.284Z,12.48
2022-12-03T07:22:57.726Z,13.75
2022-12-03T07:25:24.170Z,12.50
2022-12-03T07:27:50.596Z,11.88
2022-12-03T07:30:17.175Z,12.30
2022-12-03T07:32:43.523Z,11.85
2022-12-03T07:35:10.235Z,11.93
2022-12-03T07:37:36.992Z,13.00
2022-12-03T07:40:05.079Z,12.93
2022-12-03T07:42:31.695Z,12.77
2022-12-03T07:44:58.073Z,12.82
2022-12-03T07:47:24.519Z,12.07
2022-12-03T07:49:50.944Z,10.90
2022-12-03T07:52:17.318Z,11.68
2022-12-03T07:54:44.230Z,12.30
2022-12-03T07:57:10.620Z,12.05
2022-12-03T07:59:37.001Z,11.57
2022-12-03T08:02:03.658Z,11.48
2022-12-03T08:04:30.172Z,11.90
2022-12-03T08:06:56.541Z,12.05
2022-12-03T08:09:22.933Z,11.30
2022-12-03T08:11:50.031Z,11.63
2022-12-03T08:14:18.706Z,11.85
2022-12-03T08:16:48.022Z,11.63
2022-12-03T08:19:17.130Z,11.82
2022-12-03T08:21:44.467Z,11.60
2022-12-03T08:24:16.581Z,11.18
2022-12-03T08:26:44.507Z,11.80
2022-12-03T08:29:13.733Z,11.38
2022-12-03T08:31:40.435Z,10.90
2022-12-03T08:34:26.683Z,11.75
2022-12-03T08:36:59.515Z,11.93
2022-12-03T08:39:35.717Z,11.63
2022-12-03T08:42:26.675Z,11.23
2022-12-03T08:44:54.868Z,11.68
2022-12-03T08:47:22.967Z,11.95
2022-12-03T08:50:32.328Z,11.52
2022-12-03T08:53:22.286Z,11.52
2022-12-03T08:55:52.996Z,11.20
2022-12-03T08:58:26.637Z,11.32
2022-12-03T09:01:15.297Z,11.60
2022-12-03T09:03:51.522Z,11.18
2022-12-03T09:06:18.805Z,12.10
2022-12-03T09:08:45.288Z,12.13
2022-12-03T09:11:11.864Z,11.63
2022-12-03T09:13:38.250Z,12.32
2022-12-03T09:16:05.421Z,11.15
2022-12-03T09:18:32.467Z,11.68
2022-12-03T09:20:58.884Z,11.38
2022-12-03T09:23:25.294Z,12.15
2022-12-03T09:25:51.671Z,11.95
2022-12-03T09:28:18.129Z,11.48
2022-12-03T09:30:44.478Z,12.35
2022-12-03T09:33:10.956Z,12.05
2022-12-03T09:35:37.315Z,11.48
2022-12-03T09:38:03.749Z,11.65
2022-12-03T09:40:30.223Z,11.48
2022-12-03T09:42:58.614Z,11.88
2022-12-03T09:45:25.440Z,12.43
2022-12-03T09:47:51.941Z,11.23
2022-12-03T09:50:27.038Z,11.90
2022-12-03T09:52:56.535Z,12.68
2022-12-03T09:55:26.063Z,12.15
2022-12-03T09:57:53.591Z,11.80
2022-12-03T10:00:23.827Z,12.05
2022-12-03T10:02:52.720Z,12.52
2022-12-03T10:05:20.797Z,12.95
2022-12-03T10:07:48.660Z,13.13
2022-12-03T10:10:21.375Z,12.70
2022-12-03T10:12:48.724Z,11.88
2022-12-03T10:15:19.359Z,12.68
2022-12-03T10:17:47.595Z,12.13
2022-12-03T10:20:16.665Z,11.48
2022-12-03T10:22:43.165Z,12.20
2022-12-03T10:25:15.711Z,13.85
2022-12-03T10:27:42.501Z,12.82
2022-12-03T10:30:20.689Z,11.85
2022-12-03T10:32:49.680Z,12.48
2022-12-03T10:35:23.048Z,13.40
2022-12-03T10:37:56.420Z,12.70
2022-12-03T10:40:28.489Z,13.00
2022-12-03T10:43:12.748Z,12.45
2022-12-03T10:45:39.468Z,12.25
2022-12-03T10:48:20.963Z,11.90
2022-12-03T10:50:48.477Z,12.35
2022-12-03T10:53:15.798Z,12.90
2022-12-03T10:55:44.145Z,12.32
2022-12-03T10:58:36.676Z,12.95
2022-12-03T11:01:13.497Z,12.25
2022-12-03T11:03:40.271Z,12.02
2022-12-03T11:06:07.076Z,13.00
2022-12-03T11:08:36.441Z,12.82
2022-12-03T11:11:30.291Z,12.07
2022-12-03T11:14:03.807Z,12.43
2022-12-03T11:16:39.196Z,12.63
2022-12-03T11:19:17.812Z,12.27
2022-12-03T11:22:05.978Z,12.93
2022-12-03T11:24:34.736Z,12.13
2022-12-03T11:27:01.061Z,12.75
2022-12-03T11:29:47.742Z,12.55
2022-12-03T11:32:38.926Z,12.98
2022-12-03T11:35:13.253Z,13.05
2022-12-03T11:37:39.890Z,12.55
2022-12-03T11:40:18.223Z,12.35
2022-12-03T11:42:46.784Z,13.85
2022-12-03T11:45:18.866Z,12.93
2022-12-03T11:48:04.387Z,13.05
2022-12-03T11:53:16.075Z,12.43
2022-12-03T11:55:48.462Z,13.60
2022-12-03T11:58:30.506Z,12.93
2022-12-03T12:01:02.151Z,12.77
2022-12-03T12:03:34.458Z,13.40
2022-12-03T12:06:03.178Z,13.52
2022-12-03T12:08:30.228Z,12.75
2022-12-03T12:10:57.446Z,13.82
2022-12-03T12:13:33.925Z,13.95
2022-12-03T12:16:10.142Z,12.90
2022-12-03T12:18:55.111Z,13.48
2022-12-03T12:24:40.242Z,13.45
2022-12-03T12:27:11.876Z,12.60
2022-12-03T12:29:40.395Z,13.02
2022-12-03T12:32:14.939Z,11.80
2022-12-03T12:34:45.803Z,12.77
2022-12-03T12:37:47.224Z,13.15
2022-12-03T12:40:17.514Z,13.35
2022-12-03T12:42:50.674Z,12.63
2022-12-03T12:45:20.306Z,12.75
2022-12-03T12:48:14.631Z,13.05
2022-12-03T12:50:46.958Z,12.75
2022-12-03T12:53:27.617Z,13.48
2022-12-03T12:56:05.779Z,12.52
2022-12-03T12:58:34.124Z,14.23
2022-12-03T13:01:05.778Z,14.00
2022-12-03T13:03:36.812Z,12.55
2022-12-03T13:06:03.935Z,13.63
2022-12-03T13:08:37.364Z,12.10
2022-12-03T13:11:04.474Z,13.40
2022-12-03T13:13:44.358Z,13.68
2022-12-03T13:16:20.329Z,13.27
2022-12-03T13:18:49.017Z,12.73
2022-12-03T13:21:23.259Z,13.07
2022-12-03T13:23:57.368Z,13.50
2022-12-03T13:26:39.048Z,14.60
2022-12-03T13:29:13.476Z,12.80
2022-12-03T13:31:44.042Z,12.70
2022-12-03T13:34:21.404Z,13.98
2022-12-03T13:36:53.579Z,13.57
2022-12-03T13:39:26.997Z,14.10
2022-12-03T13:42:11.785Z,13.45
2022-12-03T13:44:47.532Z,13.80
2022-12-03T13:47:18.464Z,13.63
2022-12-03T13:49:53.879Z,13.63
2022-12-03T13:52:26.684Z,14.75
2022-12-03T13:54:55.973Z,13.82
2022-12-03T13:57:22.809Z,13.50
2022-12-03T13:59:49.338Z,13.05
2022-12-03T14:02:15.919Z,13.75
2022-12-03T14:04:42.373Z,14.18
2022-12-03T14:07:08.801Z,15.15
2022-12-03T14:09:35.193Z,14.43
2022-12-03T14:12:19.972Z,14.25
2022-12-03T14:14:46.457Z,13.73
2022-12-03T14:17:12.926Z,13.55
2022-12-03T14:19:39.405Z,14.43
2022-12-03T14:22:07.975Z,13.82
2022-12-03T14:24:34.389Z,14.77
2022-12-03T14:27:00.812Z,13.80
2022-12-03T14:29:27.581Z,13.55
2022-12-03T14:31:54.062Z,13.35
2022-12-03T14:34:20.502Z,13.50
2022-12-03T14:36:46.940Z,13.52
2022-12-03T14:39:13.330Z,14.10
2022-12-03T14:41:58.257Z,13.55
2022-12-03T14:44:25.350Z,14.55
2022-12-03T14:46:56.761Z,13.52
2022-12-03T14:49:23.884Z,15.07
2022-12-03T14:51:50.343Z,14.65
2022-12-03T14:54:16.751Z,14.20
2022-12-03T14:56:43.151Z,15.35
2022-12-03T14:59:09.532Z,14.43
2022-12-03T15:01:35.986Z,14.52
2022-12-03T15:04:02.447Z,15.15
2022-12-03T15:06:28.892Z,14.52
2022-12-03T15:08:55.301Z,15.25
2022-12-03T15:11:21.705Z,14.80
2022-12-03T15:13:48.274Z,15.70
2022-12-03T15:16:14.837Z,15.73
2022-12-03T15:18:41.350Z,14.15
2022-12-03T15:21:07.974Z,15.32
2022-12-03T15:23:34.364Z,14.05
2022-12-03T15:26:00.763Z,15.32
2022-12-03T15:28:27.631Z,15.18
2022-12-03T15:30:54.077Z,15.85
2022-12-03T15:33:20.459Z,14.98
2022-12-03T15:35:46.952Z,14.73
2022-12-03T15:38:13.443Z,15.35
2022-12-03T15:40:40.219Z,15.02
2022-12-03T15:43:07.810Z,15.70
2022-12-03T15:45:34.567Z,14.90
2022-12-03T15:48:01.576Z,15.32
2022-12-03T15:50:28.347Z,13.85
2022-12-03T15:52:54.768Z,15.30
2022-12-03T15:55:21.724Z,15.40
2022-12-03T15:57:49.173Z,15.73
2022-12-03T16:00:16.922Z,15.05
2022-12-03T16:02:49.098Z,14.63
2022-12-03T16:05:18.925Z,15.75
2022-12-03T16:07:45.419Z,15.30
2022-12-03T16:10:12.156Z,15.43
2022-12-03T16:12:38.584Z,14.10
2022-12-03T16:15:05.595Z,15.93
2022-12-03T16:17:32.009Z,16.10
2022-12-03T16:19:58.379Z,16.45
2022-12-03T16:22:24.777Z,15.63
2022-12-03T16:24:51.129Z,16.15
2022-12-03T16:27:19.630Z,15.23
2022-12-03T16:29:49.241Z,15.52
2022-12-03T16:32:15.684Z,14.73
2022-12-03T16:34:42.076Z,15.90
2022-12-03T16:37:09.575Z,15.85
2022-12-03T16:39:35.914Z,15.20
2022-12-03T16:42:03.852Z,15.32
2022-12-03T16:44:32.517Z,15.98
2022-12-03T16:47:00.344Z,15.82
2022-12-03T16:49:26.903Z,15.93
2022-12-03T16:51:53.350Z,16.58
2022-12-03T16:54:19.798Z,14.82
2022-12-03T16:56:46.162Z,15.52
2022-12-03T16:59:12.572Z,15.25
2022-12-03T17:01:39.179Z,15.52
2022-12-03T17:04:05.651Z,15.55
2022-12-03T17:06:32.066Z,15.88
2022-12-03T17:08:58.443Z,15.90
2022-12-03T17:11:24.822Z,16.60
2022-12-03T17:13:51.251Z,15.82
2022-12-03T17:16:17.688Z,14.70
2022-12-03T17:18:44.211Z,15.23
2022-12-03T17:21:10.635Z,15.48
2022-12-03T17:23:37.036Z,15.43
2022-12-03T17:26:03.455Z,15.82
2022-12-03T17:28:29.886Z,14.52
2022-12-03T17:30:56.347Z,15.07
2022-12-03T17:33:22.840Z,16.40
2022-12-03T17:35:49.237Z,15.45
2022-12-03T17:38:16.375Z,15.60
2022-12-03T17:40:42.807Z,15.20
2022-12-03T17:43:09.180Z,15.70
2022-12-03T17:45:36.703Z,16.35
2022-12-03T17:48:03.308Z,14.90
2022-12-03T17:50:29.732Z,16.42
2022-12-03T17:52:56.125Z,14.68
2022-12-03T17:55:33.632Z,15.18
2022-12-03T17:58:04.371Z,16.08
2022-12-03T18:00:31.252Z,15.90
2022-12-03T18:02:57.665Z,15.93
2022-12-03T18:05:24.187Z,15.50
2022-12-03T18:07:51.276Z,16.48
2022-12-03T18:10:17.755Z,15.60
2022-12-03T18:12:44.166Z,16.10
2022-12-03T18:15:10.823Z,15.00
2022-12-03T18:17:37.242Z,14.85
2022-12-03T18:20:04.424Z,15.70
2022-12-03T18:22:31.265Z,15.32
2022-12-03T18:24:57.897Z,15.95
2022-12-03T18:27:24.994Z,16.10
2022-12-03T18:29:51.664Z,15.93
2022-12-03T18:32:28.774Z,16.40
2022-12-03T18:34:56.687Z,15.30
2022-12-03T18:37:28.953Z,16.45
2022-12-03T18:39:57.213Z,14.80
2022-12-03T18:42:24.660Z,14.93
2022-12-03T18:44:53.983Z,14.82
2022-12-03T18:47:23.361Z,14.43
2022-12-03T18:49:50.100Z,14.60
2022-12-03T18:52:19.449Z,15.07
2022-12-03T18:54:46.544Z,15.05
2022-12-03T18:57:13.092Z,15.52
2022-12-03T18:59:39.670Z,16.35
2022-12-03T19:02:07.183Z,16.85
2022-12-03T19:04:34.028Z,15.20
2022-12-03T19:07:00.458Z,15.25
2022-12-03T19:09:26.906Z,15.85
2022-12-03T19:11:53.265Z,14.65
2022-12-03T19:14:19.701Z,15.32
2022-12-03T19:16:46.173Z,14.82
2022-12-03T19:19:12.725Z,15.25
2022-12-03T19:21:39.173Z,14.45
2022-12-03T19:26:54.666Z,13.80
2022-12-03T19:29:23.000Z,15.93
2022-12-03T19:31:52.430Z,15.25
2022-12-03T19:34:19.232Z,15.70
2022-12-03T19:36:47.398Z,17.13
2022-12-03T19:39:13.815Z,15.75
2022-12-03T19:41:41.863Z,15.23
2022-12-03T19:44:11.807Z,14.93
2022-12-03T19:46:38.372Z,15.20
2022-12-03T19:49:06.153Z,14.50
2022-12-03T19:51:35.159Z,15.80
2022-12-03T19:54:04.324Z,15.88
2022-12-03T19:56:31.252Z,15.38
2022-12-03T19:58:58.183Z,14.90
2022-12-03T20:01:27.743Z,14.77
2022-12-03T20:03:56.340Z,14.95
2022-12-03T20:06:26.466Z,15.43
2022-12-03T20:08:58.041Z,15.38
2022-12-03T20:11:27.133Z,15.02
2022-12-03T20:13:56.404Z,14.63
2022-12-03T20:16:23.707Z,14.40
2022-12-03T20:18:50.910Z,14.98
2022-12-03T20:21:19.708Z,15.57
2022-12-03T20:23:46.848Z,15.27
2022-12-03T20:26:17.058Z,15.88
2022-12-03T20:28:43.976Z,13.65
2022-12-03T20:31:13.688Z,14.93
2022-12-03T20:33:43.399Z,14.77
2022-12-03T20:36:11.296Z,15.85
2022-12-03T20:38:38.086Z,15.15
2022-12-03T20:41:12.851Z,15.32
2022-12-03T20:43:39.536Z,16.63
2022-12-03T20:46:17.201Z,14.25
2022-12-03T20:48:44.724Z,13.70
2022-12-03T20:51:14.015Z,15.75
2022-12-03T20:53:41.006Z,15.13
2022-12-03T20:56:08.410Z,15.93
2022-12-03T20:58:35.331Z,14.93
2022-12-03T21:01:12.599Z,14.65
2022-12-03T21:03:42.158Z,15.82
2022-12-03T21:06:08.733Z,15.27
2022-12-03T21:08:41.436Z,14.52
2022-12-03T21:11:10.704Z,14.43
2022-12-03T21:13:37.332Z,15.40
2022-12-03T21:16:08.559Z,15.77
2022-12-03T21:18:35.284Z,17.60
2022-12-03T21:21:02.349Z,16.42
2022-12-03T21:23:30.442Z,16.13
2022-12-03T21:26:13.512Z,15.15
2022-12-03T21:28:41.733Z,15.77
2022-12-03T21:31:10.585Z,15.38
2022-12-03T21:33:38.352Z,14.13
2022-12-03T21:36:05.707Z,15.45
2022-12-03T21:38:33.624Z,15.57
2022-12-03T21:41:01.257Z,15.30
2022-12-03T21:43:28.956Z,15.18
2022-12-03T21:45:55.951Z,14.90
2022-12-03T21:48:22.794Z,13.95
2022-12-03T21:51:00.751Z,15.40
2022-12-03T21:53:29.472Z,14.93
2022-12-03T21:55:56.097Z,16.58
2022-12-03T21:58:22.712Z,17.63
2022-12-03T22:00:49.857Z,16.50
2022-12-03T22:03:16.743Z,14.73
2022-12-03T22:05:43.755Z,17.05
2022-12-03T22:08:10.226Z,15.43
2022-12-03T22:10:36.824Z,16.40
2022-12-03T22:13:03.254Z,15.82
2022-12-03T22:15:29.637Z,15.82
2022-12-03T22:17:56.060Z,16.23
2022-12-03T22:20:22.603Z,15.10
2022-12-03T22:22:49.201Z,15.25
2022-12-03T22:25:15.889Z,15.93
2022-12-03T22:27:42.385Z,14.95
2022-12-03T22:30:09.203Z,14.85
2022-12-03T22:32:35.803Z,15.60
2022-12-03T22:35:02.361Z,15.00
2022-12-03T22:37:28.779Z,15.40
2022-12-03T22:39:55.295Z,16.48
2022-12-03T22:42:21.833Z,15.88
2022-12-03T22:44:48.213Z,15.27
2022-12-03T22:47:14.659Z,15.93
2022-12-03T22:49:41.087Z,14.77
2022-12-03T22:52:07.755Z,15.10
2022-12-03T22:54:34.156Z,15.30
2022-12-03T22:57:00.656Z,14.60
2022-12-03T22:59:27.087Z,14.65
2022-12-03T23:01:53.470Z,15.40
2022-12-03T23:04:19.967Z,14.55
2022-12-03T23:06:46.464Z,15.20
2022-12-03T23:09:13.091Z,15.48
2022-12-03T23:11:39.652Z,14.73
2022-12-03T23:14:06.075Z,14.75
2022-12-03T23:16:33.837Z,14.63
2022-12-03T23:19:01.678Z,15.30
2022-12-03T23:21:30.987Z,14.20
2022-12-03T23:24:02.387Z,15.50
2022-12-03T23:26:29.460Z,16.02
2022-12-03T23:28:56.290Z,14.45
2022-12-03T23:31:26.271Z,15.32
2022-12-03T23:33:53.747Z,14.65
2022-12-03T23:36:21.272Z,14.98
2022-12-03T23:38:47.815Z,14.93
2022-12-03T23:41:17.169Z,16.08
2022-12-03T23:43:44.082Z,16.65
2022-12-03T23:46:14.612Z,15.07
2022-12-03T23:48:41.573Z,15.50
2022-12-03T23:51:19.386Z,15.73
2022-12-03T23:53:46.433Z,15.77
2022-12-03T23:56:16.124Z,17.45
2022-12-03T23:58:43.740Z,17.45
